Time;durP1;ratioP1;P1;durP2;ratioP2;P2;SDS_P1;SDS_P2;PMS_P1;PMS_P2;Temp;Humidity;BMP_temperature;BMP_pressure;BME280_temperature;BME280_humidity;BME280_pressure;Samples;Min_cycle;Max_cycle;Signal;HPM_P1;HPM_P2
2023/07/01 00:01:35;;;;;;;0.20;0.10;;;17.40;99.90;;;;;;4993460;28;20053;-68
2023/07/01 00:04:02;;;;;;;0.00;0.00;;;17.40;99.90;;;;;;4970455;28;20118;-68
2023/07/01 00:06:27;;;;;;;0.00;0.00;;;17.40;99.90;;;;;;5018116;28;20046;-68
2023/07/01 00:08:54;;;;;;;0.00;0.00;;;17.40;99.90;;;;;;4993261;28;20810;-67
2023/07/01 00:11:20;;;;;;;0.00;0.00;;;17.40;99.90;;;;;;4996981;28;20494;-68
2023/07/01 00:13:46;;;;;;;0.05;0.00;;;17.40;99.90;;;;;;4997901;28;20385;-68
2023/07/01 00:16:15;;;;;;;0.00;0.00;;;17.40;99.90;;;;;;4982481;28;20449;-68
2023/07/01 00:18:42;;;;;;;1.15;0.30;;;17.40;99.90;;;;;;4994836;28;20052;-68
2023/07/01 00:21:08;;;;;;;0.08;0.08;;;17.40;99.90;;;;;;4996151;28;20064;-68
2023/07/01 00:23:34;;;;;;;0.00;0.00;;;17.40;99.90;;;;;;5000573;28;20119;-67
2023/07/01 00:26:00;;;;;;;0.10;0.10;;;17.40;99.90;;;;;;5011996;28;20069;-67
2023/07/01 00:28:26;;;;;;;0.03;0.00;;;17.40;99.90;;;;;;5011914;28;20038;-68
2023/07/01 00:30:51;;;;;;;0.00;0.00;;;17.50;99.90;;;;;;4997431;28;20041;-68
2023/07/01 00:33:17;;;;;;;0.00;0.00;;;17.40;99.90;;;;;;5000609;28;20328;-68
2023/07/01 00:35:43;;;;;;;0.05;0.00;;;17.50;99.90;;;;;;5013349;28;20401;-68
2023/07/01 00:38:08;;;;;;;0.10;0.10;;;17.50;99.90;;;;;;5011924;28;20065;-68
2023/07/01 00:40:34;;;;;;;0.00;0.00;;;17.50;99.90;;;;;;4997327;28;20048;-68
2023/07/01 00:43:00;;;;;;;0.20;0.03;;;17.50;99.90;;;;;;4997736;28;20052;-69
2023/07/01 00:45:26;;;;;;;0.00;0.00;;;17.40;99.90;;;;;;4992840;28;20089;-68
2023/07/01 00:47:51;;;;;;;0.15;0.03;;;17.50;99.90;;;;;;5000704;28;20042;-68
2023/07/01 00:50:17;;;;;;;0.00;0.00;;;17.50;99.90;;;;;;4996300;28;20088;-69
2023/07/01 00:52:44;;;;;;;0.00;0.00;;;17.50;99.90;;;;;;5018408;28;20450;-68
2023/07/01 00:55:10;;;;;;;0.10;0.00;;;17.50;99.90;;;;;;4995110;28;20065;-69
2023/07/01 00:57:36;;;;;;;0.35;0.15;;;17.50;99.90;;;;;;4998045;28;20079;-68
2023/07/01 01:00:12;;;;;;;0.05;0.05;;;17.50;99.90;;;;;;5002038;28;20041;-69
2023/07/01 01:02:55;;;;;;;0.00;0.00;;;17.50;99.90;;;;;;4999075;28;20077;-68
2023/07/01 01:06:12;;;;;;;0.00;0.00;;;17.50;99.90;;;;;;4995574;28;20042;-68
2023/07/01 01:09:10;;;;;;;0.00;0.00;;;17.50;99.90;;;;;;4990556;28;20576;-68
2023/07/01 01:11:40;;;;;;;0.00;0.00;;;17.50;99.90;;;;;;5011349;28;20057;-69
2023/07/01 01:14:09;;;;;;;0.00;0.00;;;17.50;99.90;;;;;;4998304;28;20038;-68
2023/07/01 01:16:35;;;;;;;0.03;0.00;;;17.50;99.90;;;;;;4993988;28;20113;-68
2023/07/01 01:19:06;;;;;;;0.00;0.00;;;17.50;99.90;;;;;;5002206;28;20080;-68
2023/07/01 01:21:34;;;;;;;0.00;0.00;;;17.50;99.90;;;;;;4996140;28;20046;-69
2023/07/01 01:24:05;;;;;;;0.00;0.00;;;17.50;99.90;;;;;;4998882;28;20117;-68
2023/07/01 01:26:39;;;;;;;0.20;0.20;;;17.50;99.90;;;;;;4990719;28;20053;-69
2023/07/01 01:29:06;;;;;;;0.00;0.00;;;17.50;99.90;;;;;;4997671;28;20451;-69
2023/07/01 01:31:33;;;;;;;0.28;0.20;;;17.50;99.90;;;;;;4999676;28;20183;-68
2023/07/01 01:33:59;;;;;;;0.00;0.00;;;17.50;99.90;;;;;;4992936;28;20502;-68
2023/07/01 01:36:37;;;;;;;0.22;0.10;;;17.50;99.90;;;;;;4991678;28;20107;-68
2023/07/01 01:39:05;;;;;;;0.00;0.00;;;17.50;99.90;;;;;;4997596;28;20049;-67
2023/07/01 01:41:54;;;;;;;0.00;0.00;;;17.50;99.90;;;;;;4999047;28;20493;-69
2023/07/01 01:44:30;;;;;;;0.08;0.05;;;17.50;99.90;;;;;;4985593;28;20038;-66
2023/07/01 01:46:57;;;;;;;0.00;0.00;;;17.50;99.90;;;;;;4993814;28;20050;-66
2023/07/01 01:49:23;;;;;;;0.00;0.00;;;17.50;99.90;;;;;;5002281;28;20490;-66
2023/07/01 01:51:49;;;;;;;0.00;0.00;;;17.50;99.90;;;;;;4975477;28;20057;-66
2023/07/01 01:54:16;;;;;;;0.22;0.20;;;17.50;99.90;;;;;;4991004;28;20064;-68
2023/07/01 01:56:42;;;;;;;0.00;0.00;;;17.50;99.90;;;;;;4991835;28;20044;-69
2023/07/01 01:59:09;;;;;;;0.00;0.00;;;17.50;99.90;;;;;;4996801;28;20041;-69
2023/07/01 02:01:35;;;;;;;0.00;0.00;;;17.50;99.90;;;;;;4993711;28;20049;-68
2023/07/01 02:04:01;;;;;;;0.20;0.10;;;17.40;99.90;;;;;;4982303;28;20071;-69
2023/07/01 02:06:27;;;;;;;0.00;0.00;;;17.30;99.90;;;;;;4997318;28;20037;-69
2023/07/01 02:08:52;;;;;;;0.00;0.00;;;17.30;99.90;;;;;;5002723;28;20490;-67
2023/07/01 02:11:18;;;;;;;0.05;0.05;;;17.30;99.90;;;;;;5000365;28;20405;-67
2023/07/01 02:13:44;;;;;;;0.05;0.05;;;17.20;99.90;;;;;;4986490;28;20037;-67
2023/07/01 02:16:09;;;;;;;0.00;0.00;;;17.20;99.90;;;;;;4996175;28;20429;-67
2023/07/01 02:18:35;;;;;;;0.40;0.38;;;17.20;99.90;;;;;;4996188;28;20129;-68
2023/07/01 02:21:04;;;;;;;0.00;0.00;;;17.20;99.90;;;;;;4996322;28;20045;-67
2023/07/01 02:23:29;;;;;;;0.00;0.00;;;17.20;99.90;;;;;;4990366;28;20509;-67
2023/07/01 02:25:55;;;;;;;0.30;0.20;;;17.20;99.90;;;;;;4994392;28;20042;-67
2023/07/01 02:28:21;;;;;;;0.20;0.20;;;17.20;99.90;;;;;;4999750;28;20045;-68
2023/07/01 02:30:46;;;;;;;0.00;0.00;;;17.20;99.90;;;;;;4994025;28;20065;-67
2023/07/01 02:33:12;;;;;;;0.00;0.00;;;17.30;99.90;;;;;;4993808;28;20067;-67
2023/07/01 02:35:38;;;;;;;0.00;0.00;;;17.30;99.90;;;;;;4998698;28;20045;-67
2023/07/01 02:38:03;;;;;;;0.10;0.00;;;17.30;99.90;;;;;;4997561;28;20042;-68
2023/07/01 02:40:29;;;;;;;0.50;0.05;;;17.30;99.90;;;;;;4989495;28;20042;-68
2023/07/01 02:42:55;;;;;;;0.00;0.00;;;17.30;99.90;;;;;;4993855;28;20128;-66
2023/07/01 02:45:20;;;;;;;0.00;0.00;;;17.30;99.90;;;;;;5017931;28;20205;-68
2023/07/01 02:47:46;;;;;;;0.00;0.00;;;17.30;99.90;;;;;;5015936;28;20398;-67
2023/07/01 02:50:12;;;;;;;0.00;0.00;;;17.30;99.90;;;;;;4990661;28;20042;-67
2023/07/01 02:52:37;;;;;;;0.00;0.00;;;17.30;99.90;;;;;;5009395;28;20430;-67
2023/07/01 02:55:03;;;;;;;0.00;0.00;;;17.30;99.90;;;;;;5015351;28;20072;-67
2023/07/01 02:57:29;;;;;;;0.22;0.05;;;17.30;99.90;;;;;;5001403;28;20394;-67
2023/07/01 02:59:56;;;;;;;0.00;0.00;;;17.30;99.90;;;;;;5003430;28;20064;-67
2023/07/01 03:02:22;;;;;;;0.00;0.00;;;17.30;99.90;;;;;;4994427;28;20432;-67
2023/07/01 03:04:48;;;;;;;0.20;0.13;;;17.20;99.90;;;;;;4997937;28;20048;-68
2023/07/01 03:07:13;;;;;;;0.00;0.00;;;17.20;99.90;;;;;;4997397;28;20033;-66
2023/07/01 03:09:39;;;;;;;0.00;0.00;;;17.10;99.90;;;;;;4991079;28;20069;-66
2023/07/01 03:12:05;;;;;;;0.10;0.10;;;17.10;99.90;;;;;;5012858;28;20040;-66
2023/07/01 03:14:31;;;;;;;0.10;0.00;;;17.10;99.90;;;;;;5019544;28;20103;-67
2023/07/01 03:16:56;;;;;;;0.88;0.10;;;17.00;99.90;;;;;;5011761;28;20030;-67
2023/07/01 03:19:23;;;;;;;0.05;0.00;;;16.90;99.90;;;;;;5017959;28;20055;-67
2023/07/01 03:21:49;;;;;;;0.00;0.00;;;16.80;99.90;;;;;;4997862;28;20137;-67
2023/07/01 03:24:14;;;;;;;0.00;0.00;;;16.70;99.90;;;;;;4999901;28;20152;-66
2023/07/01 03:26:40;;;;;;;0.20;0.20;;;16.60;99.90;;;;;;4993595;28;20050;-66
2023/07/01 03:29:06;;;;;;;0.00;0.00;;;16.50;99.90;;;;;;5003603;28;20411;-66
2023/07/01 03:31:32;;;;;;;0.00;0.00;;;16.40;99.90;;;;;;5015369;28;20093;-66
2023/07/01 03:33:58;;;;;;;0.00;0.00;;;16.30;99.90;;;;;;5003704;28;20485;-66
2023/07/01 03:36:24;;;;;;;0.00;0.00;;;16.20;99.90;;;;;;5006645;28;20091;-66
2023/07/01 03:38:50;;;;;;;2.40;0.43;;;16.10;99.90;;;;;;4992037;28;20128;-65
2023/07/01 03:41:16;;;;;;;0.03;0.00;;;16.10;99.90;;;;;;5018289;28;20037;-66
2023/07/01 03:43:42;;;;;;;0.15;0.10;;;16.00;99.90;;;;;;5020487;28;20057;-65
2023/07/01 03:46:07;;;;;;;0.10;0.10;;;15.90;99.90;;;;;;5004850;28;20049;-66
2023/07/01 03:48:34;;;;;;;0.03;0.03;;;16.00;99.90;;;;;;5014660;28;20133;-66
2023/07/01 03:51:00;;;;;;;0.00;0.00;;;15.90;99.90;;;;;;5004265;28;20548;-66
2023/07/01 03:53:25;;;;;;;0.00;0.00;;;15.80;99.90;;;;;;4987714;28;20124;-65
2023/07/01 03:55:51;;;;;;;0.10;0.03;;;15.80;99.90;;;;;;5023268;28;20049;-65
2023/07/01 03:58:21;;;;;;;0.00;0.00;;;15.80;99.90;;;;;;5002422;28;20038;-65
2023/07/01 04:00:51;;;;;;;0.75;0.30;;;15.80;99.90;;;;;;4984260;28;20049;-65
2023/07/01 04:03:16;;;;;;;0.00;0.00;;;15.80;99.90;;;;;;5021101;28;20529;-66
2023/07/01 04:05:42;;;;;;;0.15;0.10;;;15.80;99.90;;;;;;5018705;28;20126;-66
2023/07/01 04:08:08;;;;;;;0.00;0.00;;;15.80;99.90;;;;;;5013151;28;20045;-65
2023/07/01 04:10:33;;;;;;;0.00;0.00;;;15.80;99.90;;;;;;5019028;28;20125;-66
2023/07/01 04:13:00;;;;;;;0.10;0.08;;;15.80;99.90;;;;;;5002047;28;20042;-65
2023/07/01 04:15:27;;;;;;;0.10;0.00;;;15.80;99.90;;;;;;4998614;28;20406;-65
2023/07/01 04:17:54;;;;;;;0.03;0.00;;;15.80;99.90;;;;;;5012720;28;20042;-66
2023/07/01 04:20:20;;;;;;;0.22;0.10;;;15.80;99.90;;;;;;5001274;28;20056;-65
2023/07/01 04:22:50;;;;;;;0.00;0.00;;;15.80;99.90;;;;;;5018327;28;20041;-65
2023/07/01 04:25:28;;;;;;;0.15;0.05;;;15.80;99.90;;;;;;5012524;28;20084;-66
2023/07/01 04:27:54;;;;;;;0.00;0.00;;;15.80;99.90;;;;;;4994698;28;20045;-65
2023/07/01 04:30:20;;;;;;;0.15;0.10;;;15.80;99.90;;;;;;4998392;28;20458;-65
2023/07/01 04:32:46;;;;;;;0.00;0.00;;;15.80;99.90;;;;;;5016397;28;20039;-65
2023/07/01 04:35:11;;;;;;;0.00;0.00;;;15.90;99.90;;;;;;5012729;28;20502;-65
2023/07/01 04:37:37;;;;;;;0.00;0.00;;;15.90;99.90;;;;;;5012433;28;20034;-65
2023/07/01 04:40:04;;;;;;;0.05;0.05;;;15.90;99.90;;;;;;5020897;28;20510;-66
2023/07/01 04:42:31;;;;;;;0.00;0.00;;;15.90;99.90;;;;;;5015130;28;20038;-66
2023/07/01 04:44:57;;;;;;;0.00;0.00;;;15.90;99.90;;;;;;5012619;28;20038;-65
2023/07/01 04:47:23;;;;;;;0.10;0.10;;;15.90;99.90;;;;;;5013997;28;20041;-65
2023/07/01 04:49:52;;;;;;;0.00;0.00;;;15.90;99.90;;;;;;4998003;28;20056;-65
2023/07/01 04:52:22;;;;;;;0.00;0.00;;;15.90;99.90;;;;;;4990922;28;20062;-65
2023/07/01 04:54:48;;;;;;;0.00;0.00;;;15.90;99.90;;;;;;4991337;28;20042;-65
2023/07/01 04:57:13;;;;;;;0.00;0.00;;;16.00;99.90;;;;;;5007077;28;20069;-65
2023/07/01 04:59:39;;;;;;;0.00;0.00;;;16.00;99.90;;;;;;4998720;28;20560;-65
2023/07/01 05:02:05;;;;;;;0.00;0.00;;;16.00;99.90;;;;;;4995355;28;20076;-65
2023/07/01 05:04:31;;;;;;;0.20;0.20;;;16.00;99.90;;;;;;4996141;28;20042;-65
2023/07/01 05:06:57;;;;;;;0.10;0.10;;;16.00;99.90;;;;;;5019917;28;20435;-65
2023/07/01 05:09:22;;;;;;;0.00;0.00;;;16.00;99.90;;;;;;5018094;28;20087;-64
2023/07/01 05:11:48;;;;;;;0.00;0.00;;;16.10;99.90;;;;;;5021898;28;20042;-65
2023/07/01 05:14:14;;;;;;;0.45;0.45;;;16.10;99.90;;;;;;4992030;28;20082;-65
2023/07/01 05:16:39;;;;;;;0.00;0.00;;;16.10;99.90;;;;;;5013814;28;20042;-64
2023/07/01 05:19:05;;;;;;;0.00;0.00;;;16.10;99.90;;;;;;5020076;28;20068;-65
2023/07/01 05:21:33;;;;;;;0.60;0.10;;;16.10;99.90;;;;;;5026017;28;20491;-65
2023/07/01 05:23:59;;;;;;;0.00;0.00;;;16.20;99.90;;;;;;5012966;28;20108;-65
2023/07/01 05:26:25;;;;;;;0.32;0.10;;;16.20;99.90;;;;;;4996372;28;20078;-64
2023/07/01 05:28:50;;;;;;;0.00;0.00;;;16.20;99.90;;;;;;5012972;28;20056;-64
2023/07/01 05:31:16;;;;;;;0.00;0.00;;;16.20;99.90;;;;;;4995546;28;20042;-65
2023/07/01 05:33:45;;;;;;;0.00;0.00;;;16.30;99.90;;;;;;5009761;28;20509;-64
2023/07/01 05:36:11;;;;;;;0.00;0.00;;;16.30;99.90;;;;;;5016887;28;20053;-64
2023/07/01 05:38:37;;;;;;;0.00;0.00;;;16.30;99.90;;;;;;5015404;28;20054;-64
2023/07/01 05:41:03;;;;;;;0.00;0.00;;;16.40;99.90;;;;;;4993104;28;20359;-65
2023/07/01 05:43:29;;;;;;;0.00;0.00;;;16.50;99.90;;;;;;4989726;28;20038;-65
2023/07/01 05:45:55;;;;;;;0.00;0.00;;;16.40;99.90;;;;;;5017429;28;20447;-64
2023/07/01 05:48:20;;;;;;;0.00;0.00;;;16.50;99.90;;;;;;4994103;28;20132;-65
2023/07/01 05:50:46;;;;;;;0.08;0.08;;;16.50;99.90;;;;;;4991345;28;20042;-65
2023/07/01 05:53:12;;;;;;;0.08;0.00;;;16.60;99.90;;;;;;5007385;28;20034;-65
2023/07/01 05:55:38;;;;;;;0.00;0.00;;;16.50;99.90;;;;;;5011236;28;20065;-65
2023/07/01 05:58:03;;;;;;;0.10;0.10;;;16.60;99.90;;;;;;5010290;28;20042;-65
2023/07/01 06:00:29;;;;;;;0.00;0.00;;;16.60;99.90;;;;;;5013582;28;20375;-65
2023/07/01 06:02:55;;;;;;;0.00;0.00;;;16.60;99.90;;;;;;5009116;28;20041;-65
2023/07/01 06:05:21;;;;;;;0.00;0.00;;;16.60;99.90;;;;;;5013039;28;20050;-65
2023/07/01 06:07:47;;;;;;;0.00;0.00;;;16.70;99.90;;;;;;4996425;28;20462;-65
2023/07/01 06:10:13;;;;;;;0.00;0.00;;;16.60;99.90;;;;;;4988575;28;20085;-65
2023/07/01 06:12:39;;;;;;;0.00;0.00;;;16.70;99.90;;;;;;4995532;28;20114;-65
2023/07/01 06:15:05;;;;;;;0.00;0.00;;;16.60;99.90;;;;;;5013633;28;20753;-65
2023/07/01 06:17:31;;;;;;;0.10;0.10;;;16.70;99.90;;;;;;5013463;28;20113;-65
2023/07/01 06:19:57;;;;;;;0.00;0.00;;;16.70;99.90;;;;;;5010058;28;20124;-66
2023/07/01 06:22:22;;;;;;;0.43;0.25;;;16.60;99.90;;;;;;5009467;28;20037;-66
2023/07/01 06:24:48;;;;;;;0.08;0.00;;;16.70;99.90;;;;;;4997135;28;20376;-66
2023/07/01 06:27:14;;;;;;;0.05;0.05;;;16.70;99.90;;;;;;4997511;28;20038;-66
2023/07/01 06:29:39;;;;;;;0.00;0.00;;;16.70;99.90;;;;;;4990917;28;20046;-65
2023/07/01 06:32:06;;;;;;;0.00;0.00;;;16.70;99.90;;;;;;5013379;28;20038;-65
2023/07/01 06:34:31;;;;;;;0.00;0.00;;;16.60;99.90;;;;;;5017124;28;20120;-65
2023/07/01 06:36:57;;;;;;;0.20;0.20;;;16.60;99.90;;;;;;5012164;28;20553;-65
2023/07/01 06:39:23;;;;;;;0.00;0.00;;;16.50;99.90;;;;;;5007888;28;20044;-65
2023/07/01 06:41:49;;;;;;;0.00;0.00;;;16.50;99.90;;;;;;5006047;28;20136;-65
2023/07/01 06:44:14;;;;;;;0.00;0.00;;;16.50;99.90;;;;;;5014903;28;20079;-65
2023/07/01 06:46:40;;;;;;;0.05;0.05;;;16.50;99.90;;;;;;5010519;28;20042;-65
2023/07/01 06:49:06;;;;;;;0.20;0.00;;;16.50;99.90;;;;;;5006025;28;20125;-65
2023/07/01 06:51:31;;;;;;;0.00;0.00;;;16.50;99.90;;;;;;4996169;28;20060;-64
2023/07/01 06:53:57;;;;;;;0.00;0.00;;;16.50;99.90;;;;;;4994385;28;20052;-65
2023/07/01 06:56:23;;;;;;;0.00;0.00;;;16.50;99.90;;;;;;5009363;28;20149;-66
2023/07/01 06:58:48;;;;;;;0.10;0.10;;;16.50;99.90;;;;;;4988227;28;20549;-66
2023/07/01 07:01:14;;;;;;;0.22;0.20;;;16.50;99.90;;;;;;4996997;28;20099;-65
2023/07/01 07:03:40;;;;;;;0.00;0.00;;;16.60;99.90;;;;;;5011390;28;20049;-65
2023/07/01 07:06:06;;;;;;;0.30;0.00;;;16.60;99.90;;;;;;4995286;28;20046;-66
2023/07/01 07:08:32;;;;;;;0.00;0.00;;;16.70;99.90;;;;;;4986903;28;20452;-65
2023/07/01 07:10:59;;;;;;;0.00;0.00;;;16.70;99.90;;;;;;4998993;28;20401;-65
2023/07/01 07:13:25;;;;;;;0.45;0.10;;;16.70;99.90;;;;;;5017177;28;20126;-65
2023/07/01 07:15:50;;;;;;;0.10;0.10;;;16.80;99.90;;;;;;5015284;28;20096;-65
2023/07/01 07:18:16;;;;;;;0.10;0.10;;;16.80;99.90;;;;;;4997187;28;20054;-65
2023/07/01 07:20:42;;;;;;;0.10;0.10;;;16.80;99.90;;;;;;5001425;28;20141;-66
2023/07/01 07:23:08;;;;;;;0.00;0.00;;;16.80;99.90;;;;;;5019900;28;20117;-65
2023/07/01 07:25:34;;;;;;;0.00;0.00;;;16.70;99.90;;;;;;4996803;28;20048;-65
2023/07/01 07:28:00;;;;;;;0.00;0.00;;;16.70;99.90;;;;;;5017469;28;20046;-66
2023/07/01 07:30:26;;;;;;;0.22;0.00;;;16.70;99.90;;;;;;4995183;28;20066;-64
2023/07/01 07:32:51;;;;;;;0.00;0.00;;;16.70;99.90;;;;;;5003201;28;20148;-64
2023/07/01 07:35:18;;;;;;;0.00;0.00;;;16.80;99.90;;;;;;5013482;28;20054;-65
2023/07/01 07:37:44;;;;;;;0.10;0.00;;;16.80;99.90;;;;;;4996559;28;20490;-65
2023/07/01 07:40:11;;;;;;;0.00;0.00;;;16.80;99.90;;;;;;5015688;28;20087;-65
2023/07/01 07:42:37;;;;;;;0.00;0.00;;;16.80;99.90;;;;;;5024034;28;20041;-65
2023/07/01 07:45:19;;;;;;;0.00;0.00;;;16.90;99.90;;;;;;5003336;28;20037;-67
2023/07/01 07:47:45;;;;;;;0.00;0.00;;;16.90;99.90;;;;;;5025079;28;20041;-65
2023/07/01 07:50:10;;;;;;;0.55;0.45;;;16.90;99.90;;;;;;5015807;28;20041;-65
2023/07/01 07:52:36;;;;;;;0.00;0.00;;;16.90;99.90;;;;;;5005774;28;20033;-65
2023/07/01 07:55:02;;;;;;;0.00;0.00;;;17.00;99.90;;;;;;5016654;28;20128;-66
2023/07/01 07:57:28;;;;;;;0.00;0.00;;;17.00;99.90;;;;;;5009083;28;20046;-65
2023/07/01 07:59:53;;;;;;;0.43;0.40;;;17.10;99.90;;;;;;5002247;28;20053;-65
2023/07/01 08:02:19;;;;;;;0.20;0.10;;;17.20;99.90;;;;;;4998352;28;20050;-65
2023/07/01 08:04:45;;;;;;;0.00;0.00;;;17.20;99.90;;;;;;4989766;28;20088;-65
2023/07/01 08:07:11;;;;;;;0.10;0.00;;;17.20;99.90;;;;;;5014991;28;20038;-65
2023/07/01 08:09:37;;;;;;;0.20;0.08;;;17.20;99.90;;;;;;5000149;28;20468;-65
2023/07/01 08:12:03;;;;;;;0.10;0.10;;;17.20;99.90;;;;;;5019524;28;20528;-65
2023/07/01 08:14:32;;;;;;;0.00;0.00;;;17.20;99.90;;;;;;5013979;28;20064;-66
2023/07/01 08:16:59;;;;;;;0.70;0.65;;;17.30;99.90;;;;;;5015369;28;20077;-66
2023/07/01 08:19:26;;;;;;;0.00;0.00;;;17.30;99.90;;;;;;4998682;28;20046;-65
2023/07/01 08:21:52;;;;;;;0.00;0.00;;;17.30;99.90;;;;;;4999127;28;20398;-65
2023/07/01 08:24:18;;;;;;;0.00;0.00;;;17.30;99.90;;;;;;5011805;28;20053;-65
2023/07/01 08:26:43;;;;;;;0.00;0.00;;;17.30;99.90;;;;;;4999202;28;20127;-66
2023/07/01 08:29:10;;;;;;;0.25;0.25;;;17.30;99.90;;;;;;5000423;28;20086;-65
2023/07/01 08:31:36;;;;;;;0.00;0.00;;;17.40;99.90;;;;;;4993291;28;20515;-67
2023/07/01 08:34:02;;;;;;;0.00;0.00;;;17.40;99.90;;;;;;4977273;28;20039;-66
2023/07/01 08:36:28;;;;;;;0.22;0.15;;;17.40;99.90;;;;;;5014726;28;20418;-66
2023/07/01 08:38:54;;;;;;;0.10;0.10;;;17.40;99.90;;;;;;5000116;28;20118;-65
2023/07/01 08:41:24;;;;;;;0.10;0.05;;;17.50;99.90;;;;;;5017578;28;20131;-65
2023/07/01 08:43:52;;;;;;;0.00;0.00;;;17.40;99.90;;;;;;4996359;28;20482;-65
2023/07/01 08:46:19;;;;;;;0.00;0.00;;;17.50;99.90;;;;;;5000372;28;20045;-66
2023/07/01 08:48:46;;;;;;;0.00;0.00;;;17.50;99.90;;;;;;4998837;28;20485;-65
2023/07/01 08:51:12;;;;;;;0.20;0.10;;;17.50;99.90;;;;;;4990959;28;20049;-66
2023/07/01 08:53:41;;;;;;;0.25;0.25;;;17.50;99.90;;;;;;5009848;28;20493;-66
2023/07/01 08:56:07;;;;;;;0.30;0.10;;;17.60;99.90;;;;;;5008701;28;20501;-66
2023/07/01 08:58:33;;;;;;;0.00;0.00;;;17.60;99.90;;;;;;4998839;28;20249;-65
2023/07/01 09:00:59;;;;;;;0.20;0.20;;;17.60;99.90;;;;;;5011728;28;20041;-66
2023/07/01 09:03:27;;;;;;;0.10;0.10;;;17.70;99.90;;;;;;4996999;28;20060;-65
2023/07/01 09:05:52;;;;;;;0.20;0.15;;;17.60;99.90;;;;;;5016751;28;20064;-65
2023/07/01 09:08:18;;;;;;;0.10;0.10;;;17.70;99.90;;;;;;4999593;28;20039;-65
2023/07/01 09:10:44;;;;;;;0.00;0.00;;;17.70;99.90;;;;;;4986511;28;20030;-66
2023/07/01 09:13:11;;;;;;;0.10;0.10;;;17.70;99.90;;;;;;4994627;28;20045;-65
2023/07/01 09:15:55;;;;;;;0.00;0.00;;;17.70;99.90;;;;;;4993497;28;20394;-66
2023/07/01 09:18:29;;;;;;;0.00;0.00;;;17.80;99.90;;;;;;5000399;28;20081;-65
2023/07/01 09:20:56;;;;;;;0.10;0.08;;;17.80;99.90;;;;;;5004554;28;20132;-65
2023/07/01 09:23:34;;;;;;;0.00;0.00;;;17.90;99.90;;;;;;4998660;28;20049;-66
2023/07/01 09:26:08;;;;;;;0.00;0.00;;;18.00;99.90;;;;;;4995394;28;20566;-65
2023/07/01 09:28:35;;;;;;;0.00;0.00;;;18.00;99.90;;;;;;5003543;28;20104;-66
2023/07/01 09:31:03;;;;;;;0.20;0.13;;;18.10;99.90;;;;;;4992076;28;20460;-66
2023/07/01 09:33:30;;;;;;;0.10;0.10;;;18.20;99.90;;;;;;4997416;28;20077;-66
2023/07/01 09:36:01;;;;;;;0.15;0.10;;;18.20;99.90;;;;;;5010439;28;20046;-66
2023/07/01 09:38:27;;;;;;;0.20;0.20;;;18.20;99.90;;;;;;4986768;28;20038;-65
2023/07/01 09:40:53;;;;;;;0.00;0.00;;;18.20;99.90;;;;;;4989671;28;20081;-66
2023/07/01 09:43:19;;;;;;;0.38;0.13;;;18.20;99.90;;;;;;5001087;28;20458;-65
2023/07/01 09:45:57;;;;;;;0.20;0.17;;;18.20;99.90;;;;;;5012980;28;20076;-66
2023/07/01 09:48:23;;;;;;;0.30;0.10;;;18.30;99.90;;;;;;4991970;28;20059;-65
2023/07/01 09:50:50;;;;;;;0.00;0.00;;;18.40;99.90;;;;;;4988839;28;20041;-68
2023/07/01 09:53:24;;;;;;;0.00;0.00;;;18.50;99.90;;;;;;5014428;28;20041;-65
2023/07/01 09:55:50;;;;;;;0.00;0.00;;;18.50;99.90;;;;;;4995243;28;20493;-65
2023/07/01 09:58:16;;;;;;;0.17;0.17;;;18.50;99.90;;;;;;4992968;28;20044;-66
2023/07/01 10:00:42;;;;;;;0.10;0.10;;;18.50;99.90;;;;;;5012221;28;20216;-67
2023/07/01 10:03:08;;;;;;;0.00;0.00;;;18.50;99.90;;;;;;4979992;28;20052;-66
2023/07/01 10:05:35;;;;;;;0.00;0.00;;;18.50;99.90;;;;;;5016284;28;20034;-66
2023/07/01 10:08:01;;;;;;;0.10;0.10;;;18.50;99.90;;;;;;4991473;28;20421;-66
2023/07/01 10:10:27;;;;;;;0.03;0.00;;;18.40;99.90;;;;;;5007677;28;20044;-67
2023/07/01 10:12:56;;;;;;;1.45;0.30;;;18.30;99.90;;;;;;5012921;28;20041;-66
2023/07/01 10:15:29;;;;;;;0.00;0.00;;;18.30;99.90;;;;;;4978988;28;20123;-67
2023/07/01 10:17:56;;;;;;;0.00;0.00;;;18.40;99.90;;;;;;5008614;28;20058;-67
2023/07/01 10:20:26;;;;;;;0.20;0.00;;;18.40;99.90;;;;;;5007502;28;20054;-67
2023/07/01 10:22:55;;;;;;;0.28;0.10;;;18.50;99.90;;;;;;5006600;28;20044;-67
2023/07/01 10:25:37;;;;;;;0.22;0.10;;;18.50;99.90;;;;;;4983852;28;20105;-67
2023/07/01 10:28:04;;;;;;;0.00;0.00;;;18.50;99.90;;;;;;5004196;28;20041;-66
2023/07/01 10:30:45;;;;;;;0.00;0.00;;;18.50;99.90;;;;;;5012660;28;20053;-66
2023/07/01 10:33:35;;;;;;;0.10;0.00;;;18.60;99.90;;;;;;5012964;28;20084;-66
2023/07/01 10:36:06;;;;;;;0.00;0.00;;;18.70;99.90;;;;;;5013681;28;20066;-66
2023/07/01 10:38:33;;;;;;;0.03;0.03;;;18.70;99.90;;;;;;4997594;28;20397;-67
2023/07/01 10:40:59;;;;;;;0.00;0.00;;;18.70;99.90;;;;;;5015951;28;20037;-67
2023/07/01 10:43:38;;;;;;;0.08;0.00;;;18.70;99.90;;;;;;4992534;28;20100;-66
2023/07/01 10:46:07;;;;;;;0.15;0.13;;;18.70;99.90;;;;;;5011860;28;20223;-66
2023/07/01 10:48:41;;;;;;;0.32;0.20;;;18.70;99.90;;;;;;5000109;28;20053;-66
2023/07/01 10:51:13;;;;;;;0.30;0.13;;;18.70;99.90;;;;;;5005312;28;20498;-67
2023/07/01 10:54:11;;;;;;;0.20;0.17;;;18.80;99.90;;;;;;5016135;28;20065;-67
2023/07/01 10:56:42;;;;;;;0.08;0.08;;;18.80;99.90;;;;;;4989757;28;20078;-67
2023/07/01 10:59:17;;;;;;;0.00;0.00;;;18.90;99.90;;;;;;5013663;28;20104;-67
2023/07/01 11:01:44;;;;;;;0.10;0.10;;;18.90;99.90;;;;;;5015702;28;20045;-67
2023/07/01 11:04:10;;;;;;;0.10;0.10;;;18.90;99.90;;;;;;5018030;28;20061;-67
2023/07/01 11:06:46;;;;;;;0.20;0.20;;;19.00;99.90;;;;;;4999911;28;20200;-66
2023/07/01 11:09:13;;;;;;;0.20;0.00;;;19.10;99.90;;;;;;5018944;28;20080;-66
2023/07/01 11:11:39;;;;;;;0.20;0.10;;;19.20;99.90;;;;;;5020087;28;20041;-66
2023/07/01 11:14:08;;;;;;;0.00;0.00;;;19.30;99.90;;;;;;5026818;28;20048;-66
2023/07/01 11:16:36;;;;;;;0.08;0.03;;;19.30;99.90;;;;;;5019545;28;20041;-65
2023/07/01 11:19:06;;;;;;;0.25;0.15;;;19.30;99.90;;;;;;5021292;28;20401;-64
2023/07/01 11:21:32;;;;;;;0.00;0.00;;;19.30;99.90;;;;;;5020555;28;20612;-65
2023/07/01 11:24:09;;;;;;;0.00;0.00;;;19.40;99.90;;;;;;5015136;28;20108;-66
2023/07/01 11:26:36;;;;;;;0.17;0.10;;;19.30;99.90;;;;;;5000574;28;20084;-66
2023/07/01 11:29:09;;;;;;;0.00;0.00;;;19.40;99.90;;;;;;4984959;28;20108;-65
2023/07/01 11:31:36;;;;;;;0.10;0.08;;;19.30;99.90;;;;;;5016386;28;20039;-66
2023/07/01 11:34:04;;;;;;;0.00;0.00;;;19.30;99.90;;;;;;5014214;28;20095;-65
2023/07/01 11:36:44;;;;;;;0.10;0.00;;;19.30;99.90;;;;;;5020344;28;20053;-64
2023/07/01 11:39:13;;;;;;;0.00;0.00;;;19.30;99.90;;;;;;5002282;28;20053;-65
2023/07/01 11:41:41;;;;;;;0.00;0.00;;;19.30;99.90;;;;;;5007800;28;20509;-64
2023/07/01 11:44:09;;;;;;;0.00;0.00;;;19.40;99.90;;;;;;5008205;28;20042;-65
2023/07/01 11:46:37;;;;;;;0.00;0.00;;;19.40;99.90;;;;;;5015949;28;20116;-65
2023/07/01 11:49:21;;;;;;;0.00;0.00;;;19.40;99.90;;;;;;5016654;28;20074;-65
2023/07/01 11:51:50;;;;;;;0.08;0.08;;;19.50;99.90;;;;;;5018235;28;20421;-65
2023/07/01 11:54:18;;;;;;;0.10;0.10;;;19.60;99.90;;;;;;5004474;28;20042;-65
2023/07/01 11:56:45;;;;;;;0.00;0.00;;;19.80;99.90;;;;;;4996760;28;20053;-64
2023/07/01 11:59:27;;;;;;;0.00;0.00;;;20.00;99.90;;;;;;5022032;28;20034;-65
2023/07/01 12:01:53;;;;;;;0.00;0.00;;;20.20;99.90;;;;;;5013262;28;20038;-64
2023/07/01 12:04:18;;;;;;;0.10;0.00;;;20.40;99.90;;;;;;5012883;28;20049;-64
2023/07/01 12:06:45;;;;;;;0.00;0.00;;;20.60;99.90;;;;;;5012324;28;20038;-65
2023/07/01 12:09:26;;;;;;;0.00;0.00;;;20.70;99.90;;;;;;5016413;28;20138;-64
2023/07/01 12:11:52;;;;;;;0.17;0.10;;;20.90;99.90;;;;;;5007914;28;20053;-65
2023/07/01 12:14:20;;;;;;;0.00;0.00;;;21.10;99.90;;;;;;5011273;28;20070;-65
2023/07/01 12:16:47;;;;;;;0.00;0.00;;;21.20;99.90;;;;;;5010953;28;20391;-65
2023/07/01 12:19:14;;;;;;;0.00;0.00;;;21.10;99.90;;;;;;5015753;28;20041;-65
2023/07/01 12:21:40;;;;;;;0.03;0.00;;;20.80;99.90;;;;;;5004434;28;20034;-64
2023/07/01 12:24:20;;;;;;;0.00;0.00;;;20.50;99.90;;;;;;5010114;28;20034;-65
2023/07/01 12:26:57;;;;;;;0.15;0.15;;;20.10;99.90;;;;;;5010307;28;20038;-64
2023/07/01 12:29:24;;;;;;;0.10;0.05;;;19.80;99.90;;;;;;5010561;28;20053;-65
2023/07/01 12:31:50;;;;;;;0.00;0.00;;;19.50;99.90;;;;;;5006137;28;20042;-66
2023/07/01 12:34:17;;;;;;;2.08;0.60;;;19.30;99.90;;;;;;4990076;28;20033;-65
2023/07/01 12:36:44;;;;;;;0.20;0.20;;;19.10;99.90;;;;;;5011715;28;20693;-65
2023/07/01 12:39:10;;;;;;;0.03;0.03;;;19.00;99.90;;;;;;5013375;28;20053;-65
2023/07/01 12:41:36;;;;;;;0.10;0.10;;;19.00;99.90;;;;;;4979740;28;20046;-65
2023/07/01 12:44:04;;;;;;;0.00;0.00;;;18.90;99.90;;;;;;5011419;28;20125;-65
2023/07/01 12:46:33;;;;;;;0.35;0.10;;;18.90;99.90;;;;;;5014211;28;20442;-65
2023/07/01 12:49:00;;;;;;;0.00;0.00;;;19.00;99.90;;;;;;5009661;28;20052;-65
2023/07/01 12:51:27;;;;;;;0.10;0.00;;;19.10;99.90;;;;;;5002009;28;20038;-65